Time;durP1;ratioP1;P1;durP2;ratioP2;P2;SDS_P1;SDS_P2;PMS_P1;PMS_P2;Temp;Humidity;BMP_temperature;BMP_pressure;BME280_temperature;BME280_humidity;BME280_pressure;Samples;Min_cycle;Max_cycle;Signal;HPM_P1;HPM_P2
2022/08/26 00:01:50;;;;;;;;;;;25.30;99.90;;;;;;5082580;28;19925;-68
2022/08/26 00:04:15;;;;;;;;;;;25.40;99.90;;;;;;5081927;28;19986;-68
2022/08/26 00:06:41;;;;;;;;;;;25.40;99.90;;;;;;5081730;28;20031;-68
2022/08/26 00:09:07;;;;;;;;;;;25.40;99.90;;;;;;5080606;28;20014;-68
2022/08/26 00:11:32;;;;;;;;;;;25.20;99.90;;;;;;5080709;28;19943;-69
2022/08/26 00:13:58;;;;;;;;;;;25.00;99.90;;;;;;5079653;28;19970;-67
2022/08/26 00:16:24;;;;;;;;;;;24.90;99.90;;;;;;5099489;28;20318;-68
2022/08/26 00:18:51;;;;;;;;;;;24.80;99.90;;;;;;5081744;28;19912;-68
2022/08/26 00:21:17;;;;;;;;;;;24.80;99.90;;;;;;5080104;28;20015;-69
2022/08/26 00:23:42;;;;;;;;;;;24.70;99.90;;;;;;5075257;28;20011;-68
2022/08/26 00:26:08;;;;;;;;;;;24.90;99.90;;;;;;5081778;28;20318;-68
2022/08/26 00:28:34;;;;;;;;;;;25.00;99.90;;;;;;5082818;28;20003;-68
2022/08/26 00:31:02;;;;;;;;;;;25.00;99.90;;;;;;5094116;28;20296;-68
2022/08/26 00:33:27;;;;;;;;;;;25.10;99.90;;;;;;5112131;28;20279;-68
2022/08/26 00:35:53;;;;;;;;;;;25.10;99.90;;;;;;5097484;28;19985;-68
2022/08/26 00:38:20;;;;;;;;;;;25.00;99.90;;;;;;5091157;28;19919;-68
2022/08/26 00:40:50;;;;;;;;;;;25.00;99.90;;;;;;5092181;28;20214;-68
2022/08/26 00:43:16;;;;;;;;;;;25.00;99.90;;;;;;5090220;28;19908;-68
2022/08/26 00:45:43;;;;;;;;;;;25.00;99.90;;;;;;5077296;28;20358;-68
2022/08/26 00:48:10;;;;;;;;;;;25.20;99.90;;;;;;5080810;28;19930;-69
2022/08/26 00:50:40;;;;;;;;;;;25.20;99.90;;;;;;5082344;28;19916;-68
2022/08/26 00:53:20;;;;;;;;;;;25.10;99.90;;;;;;5079691;28;19919;-69
2022/08/26 00:55:56;;;;;;;;;;;25.00;99.90;;;;;;5065659;28;19962;-69
2022/08/26 00:58:23;;;;;;;;;;;25.10;99.90;;;;;;5079806;28;20406;-70
2022/08/26 01:00:48;;;;;;;;;;;25.10;99.90;;;;;;5081905;28;19916;-68
2022/08/26 01:03:15;;;;;;;;;;;25.10;99.90;;;;;;5085929;28;19912;-68
2022/08/26 01:05:41;;;;;;;;;;;25.10;99.90;;;;;;5090372;28;19974;-68
2022/08/26 01:08:07;;;;;;;;;;;25.20;99.90;;;;;;5077898;28;20341;-67
2022/08/26 01:10:33;;;;;;;;;;;25.20;99.90;;;;;;5078875;28;20289;-67
2022/08/26 01:13:03;;;;;;;;;;;25.10;99.90;;;;;;5080684;28;19917;-69
2022/08/26 01:15:31;;;;;;;;;;;25.10;99.90;;;;;;5090313;28;20421;-69
2022/08/26 01:17:57;;;;;;;;;;;25.10;99.90;;;;;;5078591;28;19920;-67
2022/08/26 01:20:30;;;;;;;;;;;25.10;99.90;;;;;;5081086;28;20348;-67
2022/08/26 01:23:00;;;;;;;;;;;25.20;99.90;;;;;;5073273;28;19971;-67
2022/08/26 01:25:27;;;;;;;;;;;25.30;99.90;;;;;;5088982;28;20359;-67
2022/08/26 01:27:56;;;;;;;;;;;25.30;99.90;;;;;;5097852;28;19916;-67
2022/08/26 01:30:22;;;;;;;;;;;25.30;99.90;;;;;;5087891;28;19916;-69
2022/08/26 01:32:48;;;;;;;;;;;25.30;99.90;;;;;;5078602;28;19912;-69
2022/08/26 01:35:14;;;;;;;;;;;25.20;99.90;;;;;;5088638;28;19916;-68
2022/08/26 01:37:40;;;;;;;;;;;25.20;99.90;;;;;;5076076;28;19957;-68
2022/08/26 01:40:07;;;;;;;;;;;25.20;99.90;;;;;;5080963;28;20362;-68
2022/08/26 01:42:33;;;;;;;;;;;25.20;99.90;;;;;;5079673;28;19955;-69
2022/08/26 01:45:08;;;;;;;;;;;25.30;99.90;;;;;;5084743;28;19912;-67
2022/08/26 01:47:35;;;;;;;;;;;25.30;99.90;;;;;;5082521;28;19919;-67
2022/08/26 01:50:03;;;;;;;;;;;25.10;99.90;;;;;;5083975;28;19920;-67
2022/08/26 01:52:30;;;;;;;;;;;25.10;99.90;;;;;;5081021;28;20086;-67
2022/08/26 01:54:56;;;;;;;;;;;25.10;99.90;;;;;;5082281;28;19916;-68
2022/08/26 01:57:23;;;;;;;;;;;25.10;99.90;;;;;;5080900;28;19916;-71
2022/08/26 01:59:50;;;;;;;;;;;25.00;99.90;;;;;;5081674;28;19956;-68
2022/08/26 02:02:16;;;;;;;;;;;24.90;99.90;;;;;;5095059;27;20292;-68
2022/08/26 02:04:51;;;;;;;;;;;24.90;99.90;;;;;;5078405;28;19916;-67
2022/08/26 02:07:18;;;;;;;;;;;25.00;99.90;;;;;;5095808;27;19921;-68
2022/08/26 02:09:43;;;;;;;;;;;25.00;99.90;;;;;;5079136;28;19999;-68
2022/08/26 02:12:10;;;;;;;;;;;25.00;99.90;;;;;;5079722;28;20011;-68
2022/08/26 02:14:37;;;;;;;;;;;24.90;99.90;;;;;;5083805;28;19912;-68
2022/08/26 02:17:05;;;;;;;;;;;24.90;99.90;;;;;;5081428;28;19927;-67
2022/08/26 02:19:33;;;;;;;;;;;24.90;99.90;;;;;;5082755;28;19946;-68
2022/08/26 02:22:06;;;;;;;;;;;24.90;99.90;;;;;;5083351;28;19955;-67
2022/08/26 02:24:46;;;;;;;;;;;24.90;99.90;;;;;;5079825;28;19920;-68
2022/08/26 02:27:12;;;;;;;;;;;25.00;99.90;;;;;;5087926;28;19912;-68
2022/08/26 02:29:40;;;;;;;;;;;25.00;99.90;;;;;;5081713;28;19908;-67
2022/08/26 02:32:08;;;;;;;;;;;25.00;99.90;;;;;;5085079;28;19919;-68
2022/08/26 02:34:34;;;;;;;;;;;25.00;99.90;;;;;;5082318;28;19988;-68
2022/08/26 02:37:05;;;;;;;;;;;25.00;99.90;;;;;;5082592;28;21580;-69
2022/08/26 02:39:31;;;;;;;;;;;25.00;99.90;;;;;;5084667;28;19920;-67
2022/08/26 02:41:57;;;;;;;;;;;24.90;99.90;;;;;;5067982;28;19932;-69
2022/08/26 02:44:24;;;;;;;;;;;24.90;99.90;;;;;;5089698;28;19912;-69
2022/08/26 02:46:50;;;;;;;;;;;25.00;99.90;;;;;;5084390;28;19947;-68
2022/08/26 02:49:15;;;;;;;;;;;24.90;99.90;;;;;;5081813;28;19919;-68
2022/08/26 02:51:41;;;;;;;;;;;24.90;99.90;;;;;;5082153;28;20002;-69
2022/08/26 02:54:06;;;;;;;;;;;25.00;99.90;;;;;;5082374;28;19920;-68
2022/08/26 02:56:33;;;;;;;;;;;25.00;99.90;;;;;;5080020;28;19951;-67
2022/08/26 02:58:58;;;;;;;;;;;25.00;99.90;;;;;;5084801;28;19974;-68
2022/08/26 03:01:29;;;;;;;;;;;25.10;99.90;;;;;;5066000;28;19920;-67
2022/08/26 03:03:56;;;;;;;;;;;25.10;99.90;;;;;;5080591;28;20435;-68
2022/08/26 03:06:23;;;;;;;;;;;25.10;99.90;;;;;;5088984;28;19923;-67
2022/08/26 03:08:49;;;;;;;;;;;25.00;99.90;;;;;;5079674;28;19977;-67
2022/08/26 03:11:15;;;;;;;;;;;24.90;99.90;;;;;;5065886;28;19917;-70
2022/08/26 03:13:40;;;;;;;;;;;24.80;99.90;;;;;;5080123;28;19912;-68
2022/08/26 03:16:06;;;;;;;;;;;24.80;99.90;;;;;;5083774;28;19912;-68
2022/08/26 03:18:32;;;;;;;;;;;24.80;99.90;;;;;;5066840;28;19924;-66
2022/08/26 03:20:58;;;;;;;;;;;24.90;99.90;;;;;;5080172;28;19912;-67
2022/08/26 03:23:24;;;;;;;;;;;25.00;99.90;;;;;;5081687;28;19971;-68
2022/08/26 03:25:50;;;;;;;;;;;24.90;99.90;;;;;;5078545;28;19913;-68
2022/08/26 03:28:16;;;;;;;;;;;25.00;99.90;;;;;;5090018;28;19915;-68
2022/08/26 03:30:43;;;;;;;;;;;25.00;99.90;;;;;;5082539;28;19919;-67
2022/08/26 03:33:10;;;;;;;;;;;25.00;99.90;;;;;;5083321;28;20408;-67
2022/08/26 03:35:36;;;;;;;;;;;25.10;99.90;;;;;;5091699;27;19923;-68
2022/08/26 03:38:03;;;;;;;;;;;25.10;99.90;;;;;;5082051;28;19932;-67
2022/08/26 03:40:32;;;;;;;;;;;25.10;99.90;;;;;;5079912;28;19916;-68
2022/08/26 03:42:58;;;;;;;;;;;25.00;99.90;;;;;;5065461;28;19946;-69
2022/08/26 03:45:24;;;;;;;;;;;25.10;99.90;;;;;;5056079;28;19912;-68
2022/08/26 03:47:50;;;;;;;;;;;25.00;99.90;;;;;;5083641;28;19936;-68
2022/08/26 03:50:18;;;;;;;;;;;25.00;99.90;;;;;;5081537;28;19920;-74
2022/08/26 03:52:47;;;;;;;;;;;25.00;99.90;;;;;;5080295;28;19936;-74
2022/08/26 03:55:13;;;;;;;;;;;25.00;99.90;;;;;;5083259;28;19912;-75
2022/08/26 03:57:42;;;;;;;;;;;25.00;99.90;;;;;;5062869;28;20336;-76
2022/08/26 04:00:15;;;;;;;;;;;24.90;99.90;;;;;;5082227;28;19912;-73
2022/08/26 04:02:42;;;;;;;;;;;24.80;99.90;;;;;;5082937;28;20377;-75
2022/08/26 04:05:08;;;;;;;;;;;24.80;99.90;;;;;;5082511;28;19912;-72
2022/08/26 04:07:34;;;;;;;;;;;24.80;99.90;;;;;;5065389;28;19931;-75
2022/08/26 04:10:00;;;;;;;;;;;24.80;99.90;;;;;;5084384;28;19920;-74
2022/08/26 04:12:26;;;;;;;;;;;24.80;99.90;;;;;;5083705;28;20451;-75
2022/08/26 04:14:55;;;;;;;;;;;24.80;99.90;;;;;;5081040;28;19924;-74
2022/08/26 04:17:20;;;;;;;;;;;24.80;99.90;;;;;;5080178;28;19916;-76
2022/08/26 04:19:46;;;;;;;;;;;24.80;99.90;;;;;;5080985;28;20384;-75
2022/08/26 04:22:11;;;;;;;;;;;24.80;99.90;;;;;;5080455;28;20007;-74
2022/08/26 04:24:38;;;;;;;;;;;24.80;99.90;;;;;;5081712;28;19923;-74
2022/08/26 04:27:04;;;;;;;;;;;24.60;99.90;;;;;;5088689;28;19920;-72
2022/08/26 04:29:30;;;;;;;;;;;24.40;99.90;;;;;;5081338;28;19912;-75
2022/08/26 04:31:56;;;;;;;;;;;24.30;99.90;;;;;;5083166;28;19966;-76
2022/08/26 04:34:22;;;;;;;;;;;24.30;99.90;;;;;;5079041;28;20436;-72
2022/08/26 04:36:49;;;;;;;;;;;24.30;99.90;;;;;;5095147;27;19912;-73
2022/08/26 04:39:15;;;;;;;;;;;24.30;99.90;;;;;;5066754;28;19913;-74
2022/08/26 04:41:42;;;;;;;;;;;24.40;99.90;;;;;;5078247;28;19920;-75
2022/08/26 04:44:08;;;;;;;;;;;24.60;99.90;;;;;;5048446;28;19913;-73
2022/08/26 04:46:34;;;;;;;;;;;24.60;99.90;;;;;;5064876;28;19923;-73
2022/08/26 04:49:00;;;;;;;;;;;24.70;99.90;;;;;;5078968;28;19963;-74
2022/08/26 04:51:28;;;;;;;;;;;24.70;99.90;;;;;;5082733;28;19919;-73
2022/08/26 04:53:55;;;;;;;;;;;24.60;99.90;;;;;;5081226;28;19943;-75
2022/08/26 04:56:22;;;;;;;;;;;24.70;99.90;;;;;;5077929;28;20365;-74
2022/08/26 04:58:48;;;;;;;;;;;24.70;99.90;;;;;;5080080;28;20292;-76
2022/08/26 05:01:14;;;;;;;;;;;24.80;99.90;;;;;;5078974;28;19957;-77
2022/08/26 05:03:39;;;;;;;;;;;24.80;99.90;;;;;;5081605;28;19912;-75
2022/08/26 05:06:05;;;;;;;;;;;24.70;99.90;;;;;;5080023;28;20011;-75
2022/08/26 05:08:31;;;;;;;;;;;24.80;99.90;;;;;;5077132;28;19920;-74
2022/08/26 05:10:56;;;;;;;;;;;24.80;99.90;;;;;;5088268;28;19916;-74
2022/08/26 05:13:23;;;;;;;;;;;24.80;99.90;;;;;;5089240;28;19916;-75
2022/08/26 05:15:49;;;;;;;;;;;24.80;99.90;;;;;;5095655;28;20318;-72
2022/08/26 05:18:16;;;;;;;;;;;24.80;99.90;;;;;;5084521;28;19940;-75
2022/08/26 05:20:43;;;;;;;;;;;24.80;99.90;;;;;;5078081;28;19943;-72
2022/08/26 05:23:09;;;;;;;;;;;24.80;99.90;;;;;;5085806;28;20019;-74
2022/08/26 05:25:40;;;;;;;;;;;24.80;99.90;;;;;;5070314;28;20016;-75
2022/08/26 05:28:07;;;;;;;;;;;24.90;99.90;;;;;;5100224;28;19928;-74
2022/08/26 05:30:32;;;;;;;;;;;24.90;99.90;;;;;;5100710;28;19981;-75
2022/08/26 05:32:58;;;;;;;;;;;24.90;99.90;;;;;;5088750;28;20518;-75
2022/08/26 05:35:27;;;;;;;;;;;25.00;99.90;;;;;;5092748;28;19934;-74
2022/08/26 05:37:52;;;;;;;;;;;25.00;99.90;;;;;;5098858;28;19939;-76
2022/08/26 05:40:18;;;;;;;;;;;25.10;99.90;;;;;;5111078;28;19955;-75
2022/08/26 05:42:45;;;;;;;;;;;25.10;99.90;;;;;;5084613;28;19915;-73
2022/08/26 05:45:11;;;;;;;;;;;25.10;99.90;;;;;;5103522;28;20377;-76
2022/08/26 05:47:37;;;;;;;;;;;25.20;99.90;;;;;;5108505;28;19923;-75
2022/08/26 05:50:04;;;;;;;;;;;25.30;99.90;;;;;;5091100;28;19919;-76
2022/08/26 05:52:31;;;;;;;;;;;25.30;99.90;;;;;;5103207;28;19916;-76
2022/08/26 05:54:56;;;;;;;;;;;25.40;99.90;;;;;;5108195;28;19915;-74
2022/08/26 05:57:22;;;;;;;;;;;25.60;99.90;;;;;;5101873;28;20288;-73
2022/08/26 05:59:48;;;;;;;;;;;25.60;99.90;;;;;;5103587;28;19912;-75
2022/08/26 06:02:13;;;;;;;;;;;25.60;99.90;;;;;;5104990;28;20041;-75
2022/08/26 06:04:39;;;;;;;;;;;25.70;99.90;;;;;;5084795;28;19916;-74
2022/08/26 06:07:04;;;;;;;;;;;25.80;99.90;;;;;;5087943;28;19913;-74
2022/08/26 06:09:30;;;;;;;;;;;25.90;99.90;;;;;;5092807;28;20331;-76
2022/08/26 06:11:57;;;;;;;;;;;26.00;99.90;;;;;;5091234;28;19912;-75
2022/08/26 06:14:24;;;;;;;;;;;26.10;99.90;;;;;;5071379;28;20334;-76
2022/08/26 06:16:50;;;;;;;;;;;26.20;99.90;;;;;;5092695;28;20006;-73
2022/08/26 06:19:16;;;;;;;;;;;26.30;99.90;;;;;;5094205;28;19959;-75
2022/08/26 06:21:44;;;;;;;;;;;26.30;99.90;;;;;;5126216;28;19908;-75
2022/08/26 06:26:55;;;;;;;;;;;26.30;99.90;;;;;;5100670;28;19947;-75
2022/08/26 06:29:23;;;;;;;;;;;26.30;99.90;;;;;;5094973;28;19916;-76
2022/08/26 06:31:49;;;;;;;;;;;26.30;99.90;;;;;;5103906;28;19916;-74
2022/08/26 06:34:14;;;;;;;;;;;26.40;99.90;;;;;;5092173;28;20322;-74
2022/08/26 06:36:41;;;;;;;;;;;26.50;99.90;;;;;;5095190;28;19907;-75
2022/08/26 06:39:08;;;;;;;;;;;26.60;99.90;;;;;;5094930;28;19912;-74
2022/08/26 06:41:34;;;;;;;;;;;26.60;99.90;;;;;;5113273;28;19915;-73
2022/08/26 06:44:00;;;;;;;;;;;26.70;99.90;;;;;;5090064;28;19980;-75
2022/08/26 06:46:26;;;;;;;;;;;26.70;99.90;;;;;;5092255;28;19912;-76
2022/08/26 06:48:52;;;;;;;;;;;26.80;99.90;;;;;;5074898;28;19916;-75
2022/08/26 06:51:19;;;;;;;;;;;26.80;99.90;;;;;;5102845;28;19911;-74
2022/08/26 06:53:45;;;;;;;;;;;26.70;99.90;;;;;;5094640;28;19956;-68
2022/08/26 06:56:12;;;;;;;;;;;26.70;99.90;;;;;;5093404;28;19912;-68
2022/08/26 06:58:38;;;;;;;;;;;26.80;99.90;;;;;;5090596;28;19916;-67
2022/08/26 07:01:04;;;;;;;;;;;26.90;99.90;;;;;;5094104;28;20020;-67
2022/08/26 07:03:29;;;;;;;;;;;27.00;99.90;;;;;;5089111;28;20838;-67
2022/08/26 07:06:02;;;;;;;;;;;27.10;99.90;;;;;;5092542;28;19966;-68
2022/08/26 07:08:27;;;;;;;;;;;27.10;99.90;;;;;;5089683;28;20338;-67
2022/08/26 07:10:53;;;;;;;;;;;27.20;99.90;;;;;;5094259;28;19912;-68
2022/08/26 07:13:21;;;;;;;;;;;27.20;99.90;;;;;;5087929;28;20374;-68
2022/08/26 07:15:47;;;;;;;;;;;27.20;99.90;;;;;;5074329;28;19986;-67
2022/08/26 07:18:13;;;;;;;;;;;27.20;99.90;;;;;;5095260;28;20311;-67
2022/08/26 07:20:42;;;;;;;;;;;27.40;99.90;;;;;;5091776;28;19984;-66
2022/08/26 07:23:08;;;;;;;;;;;27.40;99.90;;;;;;5097275;28;20283;-69
2022/08/26 07:25:36;;;;;;;;;;;27.50;99.90;;;;;;5090071;28;19921;-67
2022/08/26 07:28:02;;;;;;;;;;;27.50;99.90;;;;;;5094121;28;19920;-68
2022/08/26 07:30:28;;;;;;;;;;;27.50;99.90;;;;;;5094367;28;20027;-66
2022/08/26 07:32:55;;;;;;;;;;;27.60;99.90;;;;;;5093114;28;20459;-66
2022/08/26 07:35:20;;;;;;;;;;;27.60;99.90;;;;;;5098022;28;19927;-67
2022/08/26 07:37:46;;;;;;;;;;;27.70;99.90;;;;;;5103553;28;19912;-67
2022/08/26 07:40:11;;;;;;;;;;;27.70;99.90;;;;;;5097331;28;20008;-68
2022/08/26 07:42:37;;;;;;;;;;;27.80;99.90;;;;;;5099425;28;19923;-68
2022/08/26 07:45:03;;;;;;;;;;;27.90;99.90;;;;;;5101288;28;19923;-69
2022/08/26 07:47:28;;;;;;;;;;;27.90;99.90;;;;;;5090002;28;19916;-68
2022/08/26 07:49:54;;;;;;;;;;;28.00;99.90;;;;;;5105820;28;20399;-67
2022/08/26 07:52:20;;;;;;;;;;;28.00;99.90;;;;;;5099485;28;19923;-67
2022/08/26 07:54:46;;;;;;;;;;;28.10;99.90;;;;;;5094600;28;19915;-68
2022/08/26 07:57:11;;;;;;;;;;;28.10;99.90;;;;;;5106894;28;20330;-69
2022/08/26 07:59:37;;;;;;;;;;;28.20;99.90;;;;;;5107752;28;19912;-68
2022/08/26 08:02:03;;;;;;;;;;;28.20;99.90;;;;;;5088619;28;19916;-68
2022/08/26 08:04:28;;;;;;;;;;;28.30;99.90;;;;;;5090178;28;19912;-70
2022/08/26 08:06:54;;;;;;;;;;;28.40;99.90;;;;;;5107793;28;20371;-68
2022/08/26 08:09:20;;;;;;;;;;;28.40;99.90;;;;;;5108836;28;19919;-68
2022/08/26 08:11:45;;;;;;;;;;;28.40;99.90;;;;;;5105373;28;19912;-69
2022/08/26 08:14:11;;;;;;;;;;;28.40;99.90;;;;;;5102245;28;19967;-68
2022/08/26 08:16:37;;;;;;;;;;;28.40;99.90;;;;;;5110521;28;19919;-68
2022/08/26 08:19:03;;;;;;;;;;;28.40;99.90;;;;;;5090025;28;19912;-69
2022/08/26 08:21:29;;;;;;;;;;;28.50;99.90;;;;;;5085362;28;20352;-68
2022/08/26 08:23:55;;;;;;;;;;;28.50;99.90;;;;;;5065477;28;19973;-68
2022/08/26 08:26:21;;;;;;;;;;;28.50;99.90;;;;;;5100882;28;19916;-68
2022/08/26 08:28:47;;;;;;;;;;;28.60;99.90;;;;;;5092205;28;20018;-67
2022/08/26 08:31:24;;;;;;;;;;;28.80;99.90;;;;;;5085947;28;20053;-69
2022/08/26 08:33:50;;;;;;;;;;;28.80;99.90;;;;;;5094170;28;19923;-68
2022/08/26 08:36:15;;;;;;;;;;;28.80;99.90;;;;;;5083069;28;20289;-68
2022/08/26 08:38:42;;;;;;;;;;;28.90;99.90;;;;;;5089423;28;19912;-68
2022/08/26 08:41:28;;;;;;;;;;;28.80;99.90;;;;;;5087536;28;19922;-68
2022/08/26 08:43:54;;;;;;;;;;;28.90;99.90;;;;;;5087464;28;19912;-67
2022/08/26 08:46:20;;;;;;;;;;;28.90;99.90;;;;;;5095763;28;20400;-67
2022/08/26 08:48:47;;;;;;;;;;;29.10;99.90;;;;;;5083282;28;19924;-68
2022/08/26 08:51:12;;;;;;;;;;;29.10;99.90;;;;;;5082669;28;19931;-67
2022/08/26 08:53:40;;;;;;;;;;;29.10;99.90;;;;;;5094582;28;19912;-68
2022/08/26 08:56:14;;;;;;;;;;;29.10;99.90;;;;;;5093208;28;19938;-69
2022/08/26 08:58:56;;;;;;;;;;;29.10;99.90;;;;;;5092276;28;20002;-67
2022/08/26 09:01:24;;;;;;;;;;;29.10;99.90;;;;;;5081335;28;19971;-67
2022/08/26 09:03:59;;;;;;;;;;;29.30;99.90;;;;;;5082295;28;19916;-68
2022/08/26 09:06:24;;;;;;;;;;;29.30;99.90;;;;;;5080147;28;19956;-68
2022/08/26 09:08:50;;;;;;;;;;;29.40;99.90;;;;;;5089947;28;19970;-67
2022/08/26 09:11:17;;;;;;;;;;;29.40;99.90;;;;;;5086411;28;19928;-67
2022/08/26 09:13:50;;;;;;;;;;;29.50;99.90;;;;;;5084942;28;19995;-68
2022/08/26 09:16:39;;;;;;;;;;;29.50;99.90;;;;;;5090172;28;19912;-67
2022/08/26 09:19:10;;;;;;;;;;;29.50;99.90;;;;;;5080444;28;20007;-66
2022/08/26 09:21:36;;;;;;;;;;;29.50;99.90;;;;;;5078669;28;19912;-67
2022/08/26 09:24:02;;;;;;;;;;;29.60;99.90;;;;;;5074588;28;20389;-66
2022/08/26 09:26:27;;;;;;;;;;;29.70;99.90;;;;;;5084284;28;19944;-67
2022/08/26 09:28:56;;;;;;;;;;;29.60;99.90;;;;;;5085797;28;19923;-67
2022/08/26 09:31:23;;;;;;;;;;;29.70;99.90;;;;;;5094975;28;19941;-68
2022/08/26 09:34:02;;;;;;;;;;;29.80;99.90;;;;;;5082602;28;20337;-66
2022/08/26 09:36:34;;;;;;;;;;;29.90;99.90;;;;;;5095902;28;19912;-66
2022/08/26 09:38:59;;;;;;;;;;;29.80;99.90;;;;;;5092585;28;19983;-68
2022/08/26 09:41:27;;;;;;;;;;;29.90;99.90;;;;;;5090986;28;20348;-68
2022/08/26 09:44:01;;;;;;;;;;;30.00;99.90;;;;;;5081824;28;20016;-68
2022/08/26 09:46:28;;;;;;;;;;;30.20;99.90;;;;;;5070821;28;19912;-69
2022/08/26 09:48:53;;;;;;;;;;;30.20;99.90;;;;;;5095821;28;19920;-68
2022/08/26 09:51:22;;;;;;;;;;;30.20;99.90;;;;;;5092326;28;19916;-68
2022/08/26 09:53:58;;;;;;;;;;;30.30;99.90;;;;;;5099801;28;19911;-66
2022/08/26 09:56:25;;;;;;;;;;;30.40;99.90;;;;;;5085930;28;19934;-68
2022/08/26 09:58:51;;;;;;;;;;;30.50;99.90;;;;;;5094753;28;19939;-67
2022/08/26 10:01:26;;;;;;;;;;;30.60;99.90;;;;;;5089362;28;20325;-69
2022/08/26 10:03:52;;;;;;;;;;;30.70;99.90;;;;;;5096345;28;19912;-68
2022/08/26 10:06:18;;;;;;;;;;;31.10;99.90;;;;;;5095208;28;19919;-70
2022/08/26 10:08:44;;;;;;;;;;;31.20;99.90;;;;;;5101785;28;19916;-69
2022/08/26 10:11:16;;;;;;;;;;;31.20;99.90;;;;;;5078862;28;19923;-69
2022/08/26 10:13:43;;;;;;;;;;;31.30;99.90;;;;;;5088475;28;19919;-68
2022/08/26 10:16:15;;;;;;;;;;;31.40;99.90;;;;;;5108621;28;19989;-69
2022/08/26 10:18:44;;;;;;;;;;;31.60;99.90;;;;;;5099200;28;19912;-70
2022/08/26 10:21:12;;;;;;;;;;;31.70;99.90;;;;;;5095389;28;20285;-68
2022/08/26 10:23:41;;;;;;;;;;;31.70;99.90;;;;;;5096087;28;19916;-67
2022/08/26 10:26:12;;;;;;;;;;;31.90;99.90;;;;;;5104753;28;19912;-68
2022/08/26 10:28:45;;;;;;;;;;;31.90;99.90;;;;;;5085950;28;19935;-69
2022/08/26 10:31:11;;;;;;;;;;;31.90;99.90;;;;;;5091485;28;19923;-69
2022/08/26 10:33:37;;;;;;;;;;;31.90;99.90;;;;;;5108056;28;19916;-69
2022/08/26 10:36:05;;;;;;;;;;;32.00;99.90;;;;;;5090135;28;20015;-70
2022/08/26 10:38:39;;;;;;;;;;;32.10;99.90;;;;;;5085618;28;19973;-69
2022/08/26 10:41:09;;;;;;;;;;;32.20;99.90;;;;;;5068886;28;20002;-68
2022/08/26 10:43:38;;;;;;;;;;;32.40;99.90;;;;;;5106569;28;19912;-68
2022/08/26 10:46:07;;;;;;;;;;;32.30;99.90;;;;;;5092808;28;19947;-68
2022/08/26 10:48:47;;;;;;;;;;;32.00;99.90;;;;;;5095727;28;19942;-69
2022/08/26 10:51:14;;;;;;;;;;;31.50;99.90;;;;;;5093122;28;19911;-67
2022/08/26 10:53:46;;;;;;;;;;;31.00;99.90;;;;;;5089943;28;19965;-70
2022/08/26 10:56:21;;;;;;;;;;;30.90;99.90;;;;;;5092792;28;19962;-70
2022/08/26 10:58:47;;;;;;;;;;;30.80;99.90;;;;;;5091358;28;19920;-68
2022/08/26 11:04:02;;;;;;;;;;;30.50;99.90;;;;;;5099269;28;19923;-67
2022/08/26 11:06:30;;;;;;;;;;;30.30;99.90;;;;;;5088282;28;19912;-68
2022/08/26 11:09:00;;;;;;;;;;;30.30;99.90;;;;;;5093807;28;19928;-66
2022/08/26 11:11:41;;;;;;;;;;;30.30;99.90;;;;;;5071906;28;19912;-68
2022/08/26 11:14:18;;;;;;;;;;;30.40;99.90;;;;;;5094594;28;19908;-68
2022/08/26 11:16:45;;;;;;;;;;;30.60;99.90;;;;;;5088834;28;19912;-68
2022/08/26 11:19:32;;;;;;;;;;;30.50;99.90;;;;;;5088253;28;19939;-67
2022/08/26 11:22:03;;;;;;;;;;;30.40;99.90;;;;;;5090109;28;19958;-69
2022/08/26 11:24:55;;;;;;;;;;;30.40;99.90;;;;;;5090828;28;19924;-68
2022/08/26 11:27:27;;;;;;;;;;;30.40;99.90;;;;;;5084686;28;19916;-69
2022/08/26 11:30:01;;;;;;;;;;;30.20;99.90;;;;;;5091376;28;20002;-68
2022/08/26 11:32:33;;;;;;;;;;;30.00;99.90;;;;;;5065498;28;19912;-72
2022/08/26 11:34:59;;;;;;;;;;;30.00;99.90;;;;;;5088297;28;19919;-69
2022/08/26 11:37:30;;;;;;;;;;;30.00;99.90;;;;;;5090109;28;19912;-69
2022/08/26 11:39:56;;;;;;;;;;;30.10;99.90;;;;;;5086197;28;19923;-67
2022/08/26 11:42:21;;;;;;;;;;;30.40;99.90;;;;;;5093992;28;20312;-69
2022/08/26 11:44:47;;;;;;;;;;;30.60;99.90;;;;;;5078298;28;19912;-68
2022/08/26 11:47:14;;;;;;;;;;;30.60;99.90;;;;;;5090907;28;19916;-66
2022/08/26 11:49:39;;;;;;;;;;;30.40;99.90;;;;;;5085833;28;19964;-68
2022/08/26 11:52:14;;;;;;;;;;;30.30;99.90;;;;;;5089336;28;20337;-69
2022/08/26 11:54:57;;;;;;;;;;;30.30;99.90;;;;;;5086975;28;19962;-70
2022/08/26 11:57:23;;;;;;;;;;;30.50;99.90;;;;;;5095862;28;20771;-68
2022/08/26 11:59:48;;;;;;;;;;;30.70;99.90;;;;;;5088854;28;19916;-70
2022/08/26 12:02:15;;;;;;;;;;;30.60;99.90;;;;;;5088892;28;19912;-68
2022/08/26 12:04:43;;;;;;;;;;;30.90;99.90;;;;;;5098526;28;19915;-70
2022/08/26 12:07:09;;;;;;;;;;;30.90;99.90;;;;;;5097127;28;20005;-69
2022/08/26 12:09:36;;;;;;;;;;;30.60;99.90;;;;;;5071988;28;19916;-69
2022/08/26 12:12:12;;;;;;;;;;;30.40;99.90;;;;;;5093966;28;19912;-69
2022/08/26 12:14:38;;;;;;;;;;;30.30;99.90;;;;;;5080638;28;19931;-70
2022/08/26 12:17:08;;;;;;;;;;;30.30;99.90;;;;;;5074710;28;19916;-71
2022/08/26 12:19:33;;;;;;;;;;;30.20;99.90;;;;;;5086843;28;19913;-74
2022/08/26 12:22:08;;;;;;;;;;;30.40;99.90;;;;;;5101320;28;19927;-73
2022/08/26 12:24:34;;;;;;;;;;;30.30;99.90;;;;;;5090090;28;20412;-72
2022/08/26 12:27:23;;;;;;;;;;;30.30;99.90;;;;;;5088198;28;19916;-71
2022/08/26 12:30:01;;;;;;;;;;;30.30;99.90;;;;;;5080284;28;19927;-72
2022/08/26 12:32:27;;;;;;;;;;;30.20;99.90;;;;;;5091491;28;19920;-72
2022/08/26 12:34:53;;;;;;;;;;;30.10;99.90;;;;;;5092152;28;19915;-72
2022/08/26 12:37:19;;;;;;;;;;;30.10;99.90;;;;;;5089996;28;20377;-72
2022/08/26 12:39:46;;;;;;;;;;;30.00;99.90;;;;;;5091565;28;19914;-71
2022/08/26 12:42:12;;;;;;;;;;;29.90;99.90;;;;;;5094052;28;19912;-73
2022/08/26 12:44:40;;;;;;;;;;;30.00;99.90;;;;;;5091006;28;19915;-71
2022/08/26 12:47:08;;;;;;;;;;;30.00;99.90;;;;;;5088271;28;20007;-71
2022/08/26 12:49:40;;;;;;;;;;;30.00;99.90;;;;;;5099570;28;19915;-72
2022/08/26 12:52:06;;;;;;;;;;;30.10;99.90;;;;;;5091751;28;19908;-71
2022/08/26 12:57:17;;;;;;;;;;;30.00;99.90;;;;;;5089829;28;20341;-68
2022/08/26 12:59:42;;;;;;;;;;;29.90;99.90;;;;;;5092158;28;20003;-72
2022/08/26 13:02:09;;;;;;;;;;;29.80;99.90;;;;;;5091522;28;19908;-71
2022/08/26 13:04:41;;;;;;;;;;;29.80;99.90;;;;;;5093579;28;19942;-71
2022/08/26 13:07:25;;;;;;;;;;;29.90;99.90;;;;;;5095820;28;19951;-69
2022/08/26 13:09:52;;;;;;;;;;;30.00;99.90;;;;;;5094615;28;19916;-70
2022/08/26 13:12:22;;;;;;;;;;;30.00;99.90;;;;;;5097608;28;19951;-74
2022/08/26 13:14:49;;;;;;;;;;;30.00;99.90;;;;;;5090382;28;20262;-71
2022/08/26 13:17:15;;;;;;;;;;;30.00;99.90;;;;;;5083053;28;19912;-71
2022/08/26 13:19:41;;;;;;;;;;;30.10;99.90;;;;;;5089834;28;20047;-71
2022/08/26 13:22:10;;;;;;;;;;;30.10;99.90;;;;;;5098171;28;19962;-72
2022/08/26 13:24:38;;;;;;;;;;;30.10;99.90;;;;;;5091160;28;19935;-70
2022/08/26 13:27:05;;;;;;;;;;;30.10;99.90;;;;;;5093122;28;19920;-70
2022/08/26 13:29:31;;;;;;;;;;;30.30;99.90;;;;;;5090172;28;19912;-68
2022/08/26 13:31:57;;;;;;;;;;;30.30;99.90;;;;;;5090245;28;20281;-73
2022/08/26 13:34:22;;;;;;;;;;;30.20;99.90;;;;;;5090041;28;19908;-71
2022/08/26 13:36:49;;;;;;;;;;;30.20;99.90;;;;;;5090936;28;19916;-72
2022/08/26 13:39:16;;;;;;;;;;;30.10;99.90;;;;;;5091399;28;19919;-70
2022/08/26 13:41:42;;;;;;;;;;;30.00;99.90;;;;;;5095473;28;19939;-71
2022/08/26 13:44:08;;;;;;;;;;;30.00;99.90;;;;;;5109000;28;19934;-71
2022/08/26 13:46:34;;;;;;;;;;;29.90;99.90;;;;;;5098764;28;20408;-71
2022/08/26 13:48:59;;;;;;;;;;;29.90;99.90;;;;;;5076638;28;19920;-70
2022/08/26 13:51:25;;;;;;;;;;;30.00;99.90;;;;;;5094872;28;19912;-72
2022/08/26 13:53:52;;;;;;;;;;;30.10;99.90;;;;;;5093286;28;20411;-70
2022/08/26 13:56:18;;;;;;;;;;;30.20;99.90;;;;;;5104960;28;19998;-71
2022/08/26 13:58:43;;;;;;;;;;;30.20;99.90;;;;;;5096400;28;19933;-73
2022/08/26 14:01:09;;;;;;;;;;;30.00;99.90;;;;;;5096172;28;20403;-71
2022/08/26 14:03:35;;;;;;;;;;;30.00;99.90;;;;;;5098640;28;19912;-72
2022/08/26 14:06:01;;;;;;;;;;;29.70;99.90;;;;;;5111304;28;19957;-72
2022/08/26 14:08:26;;;;;;;;;;;29.70;99.90;;;;;;5087641;28;20077;-71
2022/08/26 14:10:52;;;;;;;;;;;29.80;99.90;;;;;;5094775;28;19915;-72
2022/08/26 14:13:18;;;;;;;;;;;29.80;99.90;;;;;;5094714;28;20042;-72
2022/08/26 14:15:44;;;;;;;;;;;29.60;99.90;;;;;;5094793;28;20385;-70
2022/08/26 14:18:12;;;;;;;;;;;29.50;99.90;;;;;;5094166;28;20292;-71
2022/08/26 14:20:38;;;;;;;;;;;29.70;99.90;;;;;;5075767;28;19912;-71
2022/08/26 14:23:03;;;;;;;;;;;29.90;99.90;;;;;;5094404;28;19917;-71
2022/08/26 14:25:29;;;;;;;;;;;29.60;99.90;;;;;;5093647;28;19923;-70
2022/08/26 14:27:57;;;;;;;;;;;29.30;99.90;;;;;;5092243;28;19982;-70